createdAt,value
2017-11-07T00:00:40.723Z,9.11
2017-11-07T00:01:41.409Z,9.14
2017-11-07T00:02:41.431Z,9.11
2017-11-07T00:03:41.105Z,9.19
2017-11-07T00:04:41.136Z,9.23
2017-11-07T00:05:40.800Z,9.19
2017-11-07T00:06:41.489Z,9.18
2017-11-07T00:07:41.511Z,9.14
2017-11-07T00:08:40.847Z,9.13
2017-11-07T00:09:41.217Z,9.16
2017-11-07T00:10:41.213Z,9.13
2017-11-07T00:11:41.562Z,9.18
2017-11-07T00:12:41.243Z,9.14
2017-11-07T00:13:41.608Z,9.16
2017-11-07T00:14:41.610Z,9.16
2017-11-07T00:15:41.628Z,9.13
2017-11-07T00:16:41.306Z,9.13
2017-11-07T00:17:41.654Z,9.13
2017-11-07T00:18:41.674Z,9.16
2017-11-07T00:19:41.726Z,9.16
2017-11-07T00:20:41.046Z,9.16
2017-11-07T00:21:41.388Z,9.13
2017-11-07T00:22:41.739Z,9.22
2017-11-07T00:23:41.078Z,9.21
2017-11-07T00:24:41.093Z,9.21
2017-11-07T00:25:41.450Z,9.25
2017-11-07T00:26:41.473Z,9.26
2017-11-07T00:27:41.473Z,9.25
2017-11-07T00:28:41.492Z,9.26
2017-11-07T00:29:41.169Z,9.26
2017-11-07T00:30:41.867Z,9.25
2017-11-07T00:31:41.538Z,9.26
2017-11-07T00:32:41.554Z,9.21
2017-11-07T00:33:41.238Z,9.23
2017-11-07T00:34:41.915Z,9.28
2017-11-07T00:35:41.262Z,9.23
2017-11-07T00:36:41.280Z,9.23
2017-11-07T00:37:41.630Z,9.25
2017-11-07T00:38:41.647Z,9.26
2017-11-07T00:39:41.660Z,9.23
2017-11-07T00:40:42.015Z,9.31
2017-11-07T00:41:41.694Z,9.25
2017-11-07T00:42:42.046Z,9.23
2017-11-07T00:43:41.733Z,9.23
2017-11-07T00:44:41.743Z,9.34
2017-11-07T00:45:41.754Z,9.26
2017-11-07T00:46:42.104Z,9.26
2017-11-07T00:47:41.787Z,9.32
2017-11-07T00:48:41.810Z,9.23
2017-11-07T00:49:41.814Z,9.28
2017-11-07T00:50:42.172Z,9.34
2017-11-07T00:51:42.184Z,9.34
2017-11-07T00:52:41.527Z,9.34
2017-11-07T00:53:41.879Z,9.28
2017-11-07T00:54:41.894Z,9.31
2017-11-07T00:55:41.911Z,9.37
2017-11-07T00:56:41.927Z,9.32
2017-11-07T00:57:41.941Z,9.37
2017-11-07T00:58:41.962Z,9.37
2017-11-07T00:59:42.328Z,9.36
2017-11-07T01:00:41.989Z,9.4
2017-11-07T01:01:42.005Z,9.39
2017-11-07T01:02:42.019Z,9.32
2017-11-07T01:03:42.368Z,9.41
2017-11-07T01:04:42.049Z,9.34
2017-11-07T01:05:42.405Z,9.32
2017-11-07T01:06:42.419Z,9.37
2017-11-07T01:07:42.097Z,9.37
2017-11-07T01:08:41.783Z,9.34
2017-11-07T01:09:57.011Z,9.39
2017-11-07T01:10:42.132Z,9.39
2017-11-07T01:11:41.822Z,9.32
2017-11-07T01:12:42.170Z,9.39
2017-11-07T01:13:42.520Z,9.37
2017-11-07T01:14:42.526Z,9.32
2017-11-07T01:15:42.211Z,9.44
2017-11-07T01:16:42.569Z,9.39
2017-11-07T01:17:42.255Z,9.41
2017-11-07T01:18:42.262Z,9.39
2017-11-07T01:19:42.613Z,9.41
2017-11-07T01:20:42.293Z,9.34
2017-11-07T01:21:42.644Z,9.43
2017-11-07T01:22:42.325Z,9.41
2017-11-07T01:23:42.675Z,9.4
2017-11-07T01:24:42.022Z,9.4
2017-11-07T01:25:42.711Z,9.43
2017-11-07T01:26:42.720Z,9.4
2017-11-07T01:27:42.738Z,9.44
2017-11-07T01:28:42.748Z,9.37
2017-11-07T01:29:42.436Z,9.37
2017-11-07T01:30:42.783Z,9.43
2017-11-07T01:31:42.805Z,9.39
2017-11-07T01:32:42.817Z,9.44
2017-11-07T01:33:42.840Z,9.34
2017-11-07T01:34:42.847Z,9.47
2017-11-07T01:35:42.869Z,9.39
2017-11-07T01:36:42.210Z,9.46
2017-11-07T01:37:42.574Z,9.46
2017-11-07T01:38:42.905Z,9.47
2017-11-07T01:39:42.597Z,9.47
2017-11-07T01:40:42.267Z,9.37
2017-11-07T01:41:42.961Z,9.4
2017-11-07T01:42:42.966Z,9.37
2017-11-07T01:43:42.651Z,9.39
2017-11-07T01:44:42.670Z,9.46
2017-11-07T01:45:42.688Z,9.44
2017-11-07T01:46:42.703Z,9.44
2017-11-07T01:47:42.719Z,9.44
2017-11-07T01:48:42.733Z,9.44
2017-11-07T01:49:42.745Z,9.47
2017-11-07T01:50:42.760Z,9.46
2017-11-07T01:51:42.780Z,9.5
2017-11-07T01:52:42.792Z,9.48
2017-11-07T01:53:42.808Z,9.47
2017-11-07T01:54:43.153Z,9.41
2017-11-07T01:55:42.840Z,9.48
2017-11-07T01:56:42.851Z,9.43
2017-11-07T01:57:42.867Z,9.43
2017-11-07T01:58:43.223Z,9.48
2017-11-07T01:59:42.900Z,9.41
2017-11-07T02:00:43.255Z,9.43
2017-11-07T02:01:43.297Z,9.48
2017-11-07T02:02:43.277Z,9.46
2017-11-07T02:03:43.302Z,9.43
2017-11-07T02:04:42.984Z,9.44
2017-11-07T02:05:42.994Z,9.43
2017-11-07T02:06:43.013Z,9.43
2017-11-07T02:07:43.031Z,9.47
2017-11-07T02:08:43.052Z,9.47
2017-11-07T02:09:42.726Z,9.44
2017-11-07T02:10:43.461Z,9.44
2017-11-07T02:11:43.093Z,9.46
2017-11-07T02:12:43.438Z,9.44
2017-11-07T02:13:43.454Z,9.46
2017-11-07T02:14:43.137Z,9.48
2017-11-07T02:15:43.150Z,9.41
2017-11-07T02:16:43.173Z,9.39
2017-11-07T02:17:43.219Z,9.44
2017-11-07T02:18:43.202Z,9.44
2017-11-07T02:19:43.546Z,9.47
2017-11-07T02:20:43.556Z,9.41
2017-11-07T02:21:43.246Z,9.44
2017-11-07T02:22:43.262Z,9.43
2017-11-07T02:23:42.944Z,9.44
2017-11-07T02:24:43.298Z,9.44
2017-11-07T02:25:43.311Z,9.46
2017-11-07T02:26:43.322Z,9.39
2017-11-07T02:27:43.341Z,9.41
2017-11-07T02:28:43.690Z,9.43
2017-11-07T02:29:43.701Z,9.44
2017-11-07T02:30:43.386Z,9.48
2017-11-07T02:31:43.492Z,9.41
2017-11-07T02:32:43.756Z,9.44
2017-11-07T02:33:43.765Z,9.46
2017-11-07T02:34:43.782Z,9.41
2017-11-07T02:35:43.464Z,9.44
2017-11-07T02:36:43.485Z,9.44
2017-11-07T02:37:43.163Z,9.44
2017-11-07T02:38:43.512Z,9.43
2017-11-07T02:39:43.861Z,9.43
2017-11-07T02:40:43.541Z,9.44
2017-11-07T02:41:43.568Z,9.47
2017-11-07T02:42:43.920Z,9.41
2017-11-07T02:43:43.592Z,9.44
2017-11-07T02:44:43.603Z,9.43
2017-11-07T02:45:43.618Z,9.46
2017-11-07T02:46:43.632Z,9.44
2017-11-07T02:47:43.311Z,9.46
2017-11-07T02:48:43.326Z,9.44
2017-11-07T02:49:44.036Z,9.46
2017-11-07T02:50:44.046Z,9.41
2017-11-07T02:51:43.710Z,9.46
2017-11-07T02:52:43.726Z,9.4
2017-11-07T02:53:43.744Z,9.43
2017-11-07T02:54:43.757Z,9.48
2017-11-07T02:55:43.784Z,9.37
2017-11-07T02:56:43.795Z,9.44
2017-11-07T02:57:43.820Z,9.43
2017-11-07T02:58:44.159Z,9.46
2017-11-07T02:59:44.214Z,9.41
2017-11-07T03:00:44.199Z,9.46
2017-11-07T03:01:43.876Z,9.44
2017-11-07T03:02:43.884Z,9.47
2017-11-07T03:03:43.913Z,9.44
2017-11-07T03:04:43.912Z,9.44
2017-11-07T03:05:44.268Z,9.41
2017-11-07T03:06:43.943Z,9.44
2017-11-07T03:07:44.297Z,9.41
2017-11-07T03:08:43.981Z,9.51
2017-11-07T03:09:43.994Z,9.47
2017-11-07T03:10:44.013Z,9.46
2017-11-07T03:11:43.708Z,9.43
2017-11-07T03:12:44.373Z,9.44
2017-11-07T03:13:43.723Z,9.43
2017-11-07T03:14:43.737Z,9.44
2017-11-07T03:15:44.086Z,9.37
2017-11-07T03:16:44.106Z,9.44
2017-11-07T03:17:43.779Z,9.44
2017-11-07T03:18:44.462Z,9.43
2017-11-07T03:19:44.482Z,9.43
2017-11-07T03:20:43.828Z,9.44
2017-11-07T03:21:43.843Z,9.46
2017-11-07T03:22:44.196Z,9.46
2017-11-07T03:23:44.543Z,9.47
2017-11-07T03:24:44.225Z,9.4
2017-11-07T03:25:44.573Z,9.46
2017-11-07T03:26:44.254Z,9.44
2017-11-07T03:27:44.276Z,9.47
2017-11-07T03:28:44.621Z,9.43
2017-11-07T03:29:44.640Z,9.43
2017-11-07T03:30:44.323Z,9.5
2017-11-07T03:31:44.000Z,9.41
2017-11-07T03:32:44.016Z,9.46
2017-11-07T03:33:44.360Z,9.41
2017-11-07T03:34:44.720Z,9.46
2017-11-07T03:35:44.739Z,9.5
2017-11-07T03:36:44.747Z,9.43
2017-11-07T03:37:44.767Z,9.41
2017-11-07T03:38:44.108Z,9.43
2017-11-07T03:39:44.461Z,9.46
2017-11-07T03:40:44.817Z,9.43
2017-11-07T03:41:44.492Z,9.47
2017-11-07T03:42:44.505Z,9.4
2017-11-07T03:43:44.184Z,9.4
2017-11-07T03:44:44.531Z,9.48
2017-11-07T03:45:44.553Z,9.43
2017-11-07T03:46:44.956Z,9.41
2017-11-07T03:47:44.585Z,9.44
2017-11-07T03:48:44.938Z,9.47
2017-11-07T03:49:44.280Z,9.51
2017-11-07T03:50:44.631Z,9.43
2017-11-07T03:51:44.641Z,9.44
2017-11-07T03:52:44.666Z,9.41
2017-11-07T03:53:45.117Z,9.51
2017-11-07T03:54:45.029Z,9.41
2017-11-07T03:55:45.037Z,9.46
2017-11-07T03:56:44.734Z,9.47
2017-11-07T03:57:44.401Z,9.47
2017-11-07T03:58:44.755Z,9.46
2017-11-07T03:59:44.438Z,9.44
2017-11-07T04:00:45.124Z,9.41
2017-11-07T04:01:44.807Z,9.44
2017-11-07T04:02:44.816Z,9.44
2017-11-07T04:03:44.832Z,9.44
2017-11-07T04:04:45.175Z,9.46
2017-11-07T04:05:45.201Z,9.44
2017-11-07T04:06:44.883Z,9.47
2017-11-07T04:07:44.895Z,9.44
2017-11-07T04:08:44.951Z,9.44
2017-11-07T04:09:45.029Z,9.48
2017-11-07T04:10:44.936Z,9.43
2017-11-07T04:11:44.621Z,9.46
2017-11-07T04:12:44.971Z,9.44
2017-11-07T04:13:44.980Z,9.48
2017-11-07T04:14:45.001Z,9.47
2017-11-07T04:15:45.361Z,9.46
2017-11-07T04:16:44.704Z,9.47
2017-11-07T04:17:45.387Z,9.46
2017-11-07T04:18:45.397Z,9.46
2017-11-07T04:19:45.412Z,9.47
2017-11-07T04:20:45.434Z,9.48
2017-11-07T04:21:45.110Z,9.47
2017-11-07T04:22:45.128Z,9.44
2017-11-07T04:23:45.493Z,9.47
2017-11-07T04:24:45.154Z,9.46
2017-11-07T04:25:45.502Z,9.39
2017-11-07T04:26:44.850Z,9.46
2017-11-07T04:27:45.211Z,9.48
2017-11-07T04:28:45.546Z,9.48
2017-11-07T04:29:45.236Z,9.43
2017-11-07T04:30:45.589Z,9.44
2017-11-07T04:31:45.608Z,9.47
2017-11-07T04:32:45.616Z,9.37
2017-11-07T04:33:45.638Z,9.47
2017-11-07T04:34:45.651Z,9.47
2017-11-07T04:35:45.324Z,9.43
2017-11-07T04:36:45.682Z,9.47
2017-11-07T04:37:45.698Z,9.4
2017-11-07T04:38:45.137Z,9.41
2017-11-07T04:39:45.732Z,9.47
2017-11-07T04:40:45.076Z,9.44
2017-11-07T04:41:45.430Z,9.44
2017-11-07T04:42:45.101Z,9.41
2017-11-07T04:43:45.117Z,9.4
2017-11-07T04:44:45.800Z,9.44
2017-11-07T04:45:45.815Z,9.39
2017-11-07T04:46:45.511Z,9.37
2017-11-07T04:47:45.842Z,9.41
2017-11-07T04:48:45.859Z,9.39
2017-11-07T04:49:45.540Z,9.4
2017-11-07T04:50:45.224Z,9.4
2017-11-07T04:51:45.572Z,9.4
2017-11-07T04:52:45.583Z,9.41
2017-11-07T04:53:45.599Z,9.4
2017-11-07T04:54:45.285Z,9.4
2017-11-07T04:55:45.973Z,9.37
2017-11-07T04:56:45.984Z,9.34
2017-11-07T04:57:45.661Z,9.32
2017-11-07T04:58:45.344Z,9.43
2017-11-07T04:59:45.696Z,9.37
2017-11-07T05:00:45.707Z,9.32
2017-11-07T05:01:45.731Z,9.37
2017-11-07T05:02:46.077Z,9.32
2017-11-07T05:03:45.755Z,9.34
2017-11-07T05:04:46.110Z,9.36
2017-11-07T05:05:45.795Z,9.4
2017-11-07T05:06:45.802Z,9.43
2017-11-07T05:07:45.818Z,9.34
2017-11-07T05:08:45.835Z,9.34
2017-11-07T05:09:45.514Z,9.4
2017-11-07T05:10:45.877Z,9.47
2017-11-07T05:11:45.875Z,9.37
2017-11-07T05:12:45.907Z,9.4
2017-11-07T05:13:45.910Z,9.28
2017-11-07T05:14:46.270Z,9.4
2017-11-07T05:15:45.607Z,9.36
2017-11-07T05:16:46.295Z,9.4
2017-11-07T05:17:45.972Z,9.32
2017-11-07T05:18:45.989Z,9.37
2017-11-07T05:19:46.369Z,9.36
2017-11-07T05:20:46.021Z,9.37
2017-11-07T05:21:46.401Z,9.39
2017-11-07T05:22:46.049Z,9.36
2017-11-07T05:23:45.728Z,9.34
2017-11-07T05:24:46.414Z,9.37
2017-11-07T05:25:46.433Z,9.36
2017-11-07T05:26:45.777Z,9.32
2017-11-07T05:27:46.467Z,9.37
2017-11-07T05:28:46.475Z,9.37
2017-11-07T05:29:46.492Z,9.32
2017-11-07T05:30:46.507Z,9.29
2017-11-07T05:31:45.850Z,9.36
2017-11-07T05:32:46.541Z,9.34
2017-11-07T05:33:45.882Z,9.4
2017-11-07T05:34:45.898Z,9.34
2017-11-07T05:35:46.258Z,9.32
2017-11-07T05:36:46.263Z,9.34
2017-11-07T05:37:45.948Z,9.39
2017-11-07T05:38:46.650Z,9.36
2017-11-07T05:39:46.319Z,9.4
2017-11-07T05:40:46.666Z,9.36
2017-11-07T05:41:46.013Z,9.32
2017-11-07T05:42:46.353Z,9.36
2017-11-07T05:43:46.035Z,9.4
2017-11-07T05:44:46.717Z,9.4
2017-11-07T05:45:46.734Z,9.34
2017-11-07T05:46:46.763Z,9.34
2017-11-07T05:47:46.431Z,9.34
2017-11-07T05:48:46.449Z,9.32
2017-11-07T05:49:46.135Z,9.4
2017-11-07T05:50:46.481Z,9.29
2017-11-07T05:51:46.160Z,9.32
2017-11-07T05:52:46.845Z,9.32
2017-11-07T05:53:46.859Z,9.4
2017-11-07T05:54:46.546Z,9.32
2017-11-07T05:55:46.552Z,9.4
2017-11-07T05:56:46.569Z,9.32
2017-11-07T05:57:46.584Z,9.26
2017-11-07T05:58:46.603Z,9.36
2017-11-07T05:59:46.614Z,9.37
2017-11-07T06:00:46.971Z,9.29
2017-11-07T06:01:46.649Z,9.37
2017-11-07T06:02:46.669Z,9.36
2017-11-07T06:03:46.679Z,9.32
2017-11-07T06:04:47.051Z,9.37
2017-11-07T06:05:46.709Z,9.36
2017-11-07T06:06:46.390Z,9.39
2017-11-07T06:07:47.077Z,9.37
2017-11-07T06:08:46.420Z,9.31
2017-11-07T06:09:46.779Z,9.37
2017-11-07T06:10:46.787Z,9.34
2017-11-07T06:11:46.803Z,9.37
2017-11-07T06:12:46.819Z,9.32
2017-11-07T06:13:46.834Z,9.34
2017-11-07T06:14:46.848Z,9.36
2017-11-07T06:15:46.527Z,9.34
2017-11-07T06:16:46.541Z,9.34
2017-11-07T06:17:47.231Z,9.4
2017-11-07T06:18:46.922Z,9.36
2017-11-07T06:19:46.923Z,9.36
2017-11-07T06:20:47.274Z,9.29
2017-11-07T06:21:47.300Z,9.34
2017-11-07T06:22:46.968Z,9.32
2017-11-07T06:23:46.979Z,9.39
2017-11-07T06:24:46.994Z,9.4
2017-11-07T06:25:47.022Z,9.36
2017-11-07T06:26:46.696Z,9.36
2017-11-07T06:27:47.043Z,9.4
2017-11-07T06:28:47.394Z,9.32
2017-11-07T06:29:47.413Z,9.29
2017-11-07T06:30:47.091Z,9.29
2017-11-07T06:31:47.108Z,9.21
2017-11-07T06:32:46.813Z,9.37
2017-11-07T06:33:47.470Z,9.36
2017-11-07T06:34:47.165Z,9.34
2017-11-07T06:35:47.511Z,9.4
2017-11-07T06:36:46.886Z,9.37
2017-11-07T06:37:46.883Z,9.4
2017-11-07T06:38:47.548Z,9.37
2017-11-07T06:39:46.894Z,9.36
2017-11-07T06:40:46.908Z,9.4
2017-11-07T06:41:47.603Z,9.41
2017-11-07T06:42:47.617Z,9.32
2017-11-07T06:43:47.284Z,9.36
2017-11-07T06:44:46.967Z,9.34
2017-11-07T06:45:47.325Z,9.37
2017-11-07T06:46:47.340Z,9.32
2017-11-07T06:47:47.349Z,9.39
2017-11-07T06:48:47.366Z,9.29
2017-11-07T06:49:47.381Z,9.32
2017-11-07T06:50:47.400Z,9.32
2017-11-07T06:51:47.076Z,9.41
2017-11-07T06:52:47.426Z,9.36
2017-11-07T06:53:47.444Z,9.39
2017-11-07T06:54:47.795Z,9.34
2017-11-07T06:55:47.813Z,9.4
2017-11-07T06:56:47.166Z,9.43
2017-11-07T06:57:47.853Z,9.44
2017-11-07T06:58:47.519Z,9.34
2017-11-07T06:59:47.886Z,9.39
2017-11-07T07:00:47.549Z,9.37
2017-11-07T07:01:47.569Z,9.43
2017-11-07T07:02:47.580Z,9.43
2017-11-07T07:03:47.590Z,9.47
2017-11-07T07:04:47.606Z,9.41
2017-11-07T07:05:47.963Z,9.34
2017-11-07T07:06:47.644Z,9.43
2017-11-07T07:07:47.318Z,9.48
2017-11-07T07:08:47.673Z,9.43
2017-11-07T07:09:47.682Z,9.46
2017-11-07T07:10:47.701Z,9.43
2017-11-07T07:11:48.049Z,9.43
2017-11-07T07:12:47.731Z,9.41
2017-11-07T07:13:47.767Z,9.41
2017-11-07T07:14:47.763Z,9.41
2017-11-07T07:15:47.777Z,9.46
2017-11-07T07:16:47.823Z,9.51
2017-11-07T07:17:48.160Z,9.51
2017-11-07T07:18:47.836Z,9.46
2017-11-07T07:19:48.173Z,9.48
2017-11-07T07:20:47.857Z,9.43
2017-11-07T07:21:48.202Z,9.48
2017-11-07T07:22:48.217Z,9.5
2017-11-07T07:23:47.560Z,9.51
2017-11-07T07:24:48.253Z,9.55
2017-11-07T07:25:47.593Z,9.5
2017-11-07T07:26:48.277Z,9.47
2017-11-07T07:27:48.290Z,9.47
2017-11-07T07:28:47.970Z,9.47
2017-11-07T07:29:47.662Z,9.54
2017-11-07T07:30:48.008Z,9.59
2017-11-07T07:31:48.027Z,9.55
2017-11-07T07:32:48.038Z,9.55
2017-11-07T07:33:48.387Z,9.58
2017-11-07T07:34:47.750Z,9.54
2017-11-07T07:35:48.411Z,9.59
2017-11-07T07:36:48.097Z,9.64
2017-11-07T07:37:48.445Z,9.59
2017-11-07T07:38:48.128Z,9.59
2017-11-07T07:39:48.142Z,9.68
2017-11-07T07:40:47.824Z,9.66
2017-11-07T07:41:48.167Z,9.68
2017-11-07T07:42:48.523Z,9.65
2017-11-07T07:43:48.565Z,9.73
2017-11-07T07:44:48.218Z,9.64
2017-11-07T07:45:48.353Z,9.72
2017-11-07T07:46:48.248Z,9.69
2017-11-07T07:47:48.617Z,9.68
2017-11-07T07:48:48.282Z,9.69
2017-11-07T07:49:47.961Z,9.69
2017-11-07T07:50:48.306Z,9.66
2017-11-07T07:51:48.662Z,9.69
2017-11-07T07:52:48.681Z,9.74
2017-11-07T07:53:48.696Z,9.77
2017-11-07T07:54:48.712Z,9.66
2017-11-07T07:55:48.388Z,9.74
2017-11-07T07:56:48.401Z,9.74
2017-11-07T07:57:48.423Z,9.68
2017-11-07T07:58:48.769Z,9.77
2017-11-07T07:59:48.449Z,9.8
2017-11-07T08:00:48.470Z,9.69
2017-11-07T08:01:48.820Z,9.74
2017-11-07T08:02:48.841Z,9.76
2017-11-07T08:03:48.515Z,9.8
2017-11-07T08:04:48.191Z,9.79
2017-11-07T08:05:48.209Z,9.83
2017-11-07T08:06:48.896Z,9.83
2017-11-07T08:07:48.240Z,9.84
2017-11-07T08:08:48.922Z,9.8
2017-11-07T08:09:48.613Z,9.8
2017-11-07T08:10:48.283Z,9.82
2017-11-07T08:11:48.636Z,9.8
2017-11-07T08:12:48.654Z,9.82
2017-11-07T08:13:48.680Z,9.82
2017-11-07T08:14:49.029Z,9.99
2017-11-07T08:15:49.041Z,9.87
2017-11-07T08:16:48.379Z,9.91
2017-11-07T08:17:49.056Z,9.89
2017-11-07T08:18:48.749Z,9.87
2017-11-07T08:19:48.763Z,9.92
2017-11-07T08:20:48.781Z,9.94
2017-11-07T08:21:49.118Z,9.97
2017-11-07T08:22:48.472Z,9.91
2017-11-07T08:23:48.487Z,9.87
2017-11-07T08:24:48.836Z,9.91
2017-11-07T08:25:48.516Z,9.98
2017-11-07T08:26:48.864Z,9.97
2017-11-07T08:27:48.878Z,9.95
2017-11-07T08:28:49.289Z,10.04
2017-11-07T08:29:48.948Z,10.02
2017-11-07T08:30:48.592Z,10.04
2017-11-07T08:31:49.290Z,10.04
2017-11-07T08:32:49.294Z,10.1
2017-11-07T08:33:49.313Z,10.13
2017-11-07T08:34:48.998Z,10.16
2017-11-07T08:35:49.010Z,10.17
2017-11-07T08:36:49.025Z,10.09
2017-11-07T08:37:48.708Z,10.12
2017-11-07T08:38:49.389Z,10.12
2017-11-07T08:39:48.735Z,10.07
2017-11-07T08:40:49.418Z,10.1
2017-11-07T08:41:49.099Z,10.13
2017-11-07T08:42:49.115Z,10.16
2017-11-07T08:43:49.477Z,10.12
2017-11-07T08:44:49.482Z,10.13
2017-11-07T08:45:48.838Z,10.05
2017-11-07T08:46:49.181Z,10.17
2017-11-07T08:47:49.195Z,10.2
2017-11-07T08:48:49.220Z,10.22
2017-11-07T08:49:49.559Z,10.16
2017-11-07T08:50:49.582Z,10.22
2017-11-07T08:51:49.600Z,10.19
2017-11-07T08:52:49.285Z,10.23
2017-11-07T08:53:49.291Z,10.25
2017-11-07T08:54:49.312Z,10.25
2017-11-07T08:55:49.661Z,10.26
2017-11-07T08:56:49.002Z,10.26
2017-11-07T08:57:49.356Z,10.25
2017-11-07T08:58:49.366Z,10.31
2017-11-07T08:59:49.384Z,10.3
2017-11-07T09:00:49.402Z,10.31
2017-11-07T09:01:49.420Z,10.33
2017-11-07T09:02:49.800Z,10.34
2017-11-07T09:03:49.452Z,10.28
2017-11-07T09:04:49.798Z,10.28
2017-11-07T09:05:49.482Z,10.37
2017-11-07T09:06:49.846Z,10.38
2017-11-07T09:07:49.515Z,10.35
2017-11-07T09:08:49.537Z,10.28
2017-11-07T09:09:49.207Z,10.37
2017-11-07T09:10:49.564Z,10.3
2017-11-07T09:11:49.912Z,10.4
2017-11-07T09:12:49.263Z,10.41
2017-11-07T09:13:49.940Z,10.4
2017-11-07T09:14:49.979Z,10.42
2017-11-07T09:15:49.976Z,10.44
2017-11-07T09:16:49.989Z,10.41
2017-11-07T09:17:50.004Z,10.44
2017-11-07T09:18:50.025Z,10.54
2017-11-07T09:19:49.703Z,10.46
2017-11-07T09:20:50.055Z,10.48
2017-11-07T09:21:50.069Z,10.54
2017-11-07T09:22:49.420Z,10.53
2017-11-07T09:23:49.764Z,10.57
2017-11-07T09:24:49.788Z,10.54
2017-11-07T09:25:49.798Z,10.57
2017-11-07T09:26:49.810Z,10.57
2017-11-07T09:27:49.830Z,10.53
2017-11-07T09:28:49.843Z,10.57
2017-11-07T09:29:49.523Z,10.54
2017-11-07T09:30:49.874Z,10.63
2017-11-07T09:31:49.895Z,10.61
2017-11-07T09:32:49.572Z,10.59
2017-11-07T09:33:49.935Z,10.64
2017-11-07T09:34:50.290Z,10.57
2017-11-07T09:35:49.974Z,10.68
2017-11-07T09:36:49.642Z,10.71
2017-11-07T09:37:49.986Z,10.6
2017-11-07T09:38:50.343Z,10.64
2017-11-07T09:39:50.359Z,10.64
2017-11-07T09:40:50.036Z,10.71
2017-11-07T09:41:50.053Z,10.67
2017-11-07T09:42:50.068Z,10.64
2017-11-07T09:43:50.092Z,10.68
2017-11-07T09:44:50.107Z,10.68
2017-11-07T09:45:50.125Z,10.69
2017-11-07T09:46:50.132Z,10.69
2017-11-07T09:47:50.155Z,10.74
2017-11-07T09:48:50.495Z,10.74
2017-11-07T09:49:50.181Z,10.81
2017-11-07T09:50:50.531Z,10.75
2017-11-07T09:51:50.236Z,10.78
2017-11-07T09:52:50.233Z,10.78
2017-11-07T09:53:50.583Z,10.75
2017-11-07T09:54:50.261Z,10.81
2017-11-07T09:55:50.628Z,10.75
2017-11-07T09:56:50.306Z,10.84
2017-11-07T09:57:50.313Z,10.79
2017-11-07T09:58:50.328Z,10.84
2017-11-07T09:59:50.677Z,10.81
2017-11-07T10:00:50.703Z,10.79
2017-11-07T10:01:50.373Z,10.79
2017-11-07T10:02:50.395Z,10.79
2017-11-07T10:03:50.412Z,10.82
2017-11-07T10:04:50.424Z,10.82
2017-11-07T10:05:50.112Z,10.78
2017-11-07T10:06:50.791Z,10.78
2017-11-07T10:07:50.141Z,10.81
2017-11-07T10:08:50.489Z,10.82
2017-11-07T10:09:50.172Z,10.92
2017-11-07T10:10:50.518Z,10.78
2017-11-07T10:11:50.547Z,10.82
2017-11-07T10:12:50.897Z,10.9
2017-11-07T10:13:50.906Z,10.9
2017-11-07T10:14:50.587Z,10.82
2017-11-07T10:15:50.610Z,10.9
2017-11-07T10:16:50.628Z,10.84
2017-11-07T10:17:50.635Z,10.87
2017-11-07T10:18:50.650Z,10.82
2017-11-07T10:19:50.675Z,10.9
2017-11-07T10:20:51.028Z,10.84
2017-11-07T10:21:50.705Z,10.82
2017-11-07T10:22:51.044Z,10.86
2017-11-07T10:23:51.073Z,10.89
2017-11-07T10:24:50.754Z,10.92
2017-11-07T10:25:51.111Z,10.92
2017-11-07T10:26:50.782Z,10.92
2017-11-07T10:27:50.476Z,10.92
2017-11-07T10:28:50.811Z,10.92
2017-11-07T10:29:50.831Z,10.92
2017-11-07T10:30:50.853Z,10.9
2017-11-07T10:31:51.218Z,10.92
2017-11-07T10:32:50.542Z,10.92
2017-11-07T10:33:51.230Z,10.93
2017-11-07T10:34:50.577Z,10.94
2017-11-07T10:35:50.937Z,10.94
2017-11-07T10:36:50.613Z,10.94
2017-11-07T10:37:50.632Z,10.92
2017-11-07T10:38:51.311Z,10.92
2017-11-07T10:39:51.014Z,10.93
2017-11-07T10:40:51.015Z,10.96
2017-11-07T10:41:51.364Z,10.87
2017-11-07T10:42:51.377Z,10.9
2017-11-07T10:43:51.062Z,10.92
2017-11-07T10:44:51.071Z,10.89
2017-11-07T10:45:51.094Z,10.92
2017-11-07T10:46:51.451Z,10.92
2017-11-07T10:47:51.138Z,10.92
2017-11-07T10:48:51.134Z,10.9
2017-11-07T10:49:51.492Z,10.9
2017-11-07T10:50:51.171Z,10.97
2017-11-07T10:51:51.526Z,10.87
2017-11-07T10:52:51.204Z,10.92
2017-11-07T10:53:51.237Z,10.94
2017-11-07T10:54:50.904Z,10.9
2017-11-07T10:55:51.255Z,10.97
2017-11-07T10:56:51.278Z,10.94
2017-11-07T10:57:51.284Z,10.99
2017-11-07T10:58:51.642Z,10.96
2017-11-07T10:59:51.319Z,10.97
2017-11-07T11:00:51.677Z,10.87
2017-11-07T11:01:51.355Z,10.93
2017-11-07T11:02:51.366Z,10.99
2017-11-07T11:03:51.717Z,10.99
2017-11-07T11:04:51.737Z,10.99
2017-11-07T11:05:51.415Z,11.02
2017-11-07T11:06:51.440Z,10.93
2017-11-07T11:07:51.453Z,10.97
2017-11-07T11:08:51.132Z,11
2017-11-07T11:09:51.482Z,10.99
2017-11-07T11:10:51.504Z,11
2017-11-07T11:11:51.516Z,11.02
2017-11-07T11:12:51.533Z,11.07
2017-11-07T11:13:51.892Z,11.02
2017-11-07T11:14:51.901Z,11.02
2017-11-07T11:15:51.578Z,11.08
2017-11-07T11:16:51.596Z,11.1
2017-11-07T11:17:51.944Z,11.08
2017-11-07T11:18:51.965Z,11.05
2017-11-07T11:19:51.996Z,11.04
2017-11-07T11:20:51.664Z,11.15
2017-11-07T11:21:51.682Z,11.12
2017-11-07T11:22:52.027Z,11.17
2017-11-07T11:23:51.710Z,11.14
2017-11-07T11:24:51.395Z,11.12
2017-11-07T11:25:51.743Z,11.12
2017-11-07T11:26:51.773Z,11.19
2017-11-07T11:27:51.781Z,11.18
2017-11-07T11:28:52.132Z,11.12
2017-11-07T11:29:51.806Z,11.11
2017-11-07T11:30:51.492Z,11.19
2017-11-07T11:31:51.846Z,11.15
2017-11-07T11:32:51.856Z,11.19
2017-11-07T11:33:51.890Z,11.22
2017-11-07T11:34:51.892Z,11.23
2017-11-07T11:35:52.240Z,11.18
2017-11-07T11:36:51.924Z,11.23
2017-11-07T11:37:52.277Z,11.18
2017-11-07T11:38:51.956Z,11.25
2017-11-07T11:39:51.980Z,11.27
2017-11-07T11:40:52.341Z,11.23
2017-11-07T11:41:52.342Z,11.33
2017-11-07T11:42:52.362Z,11.26
2017-11-07T11:43:51.705Z,11.26
2017-11-07T11:44:51.727Z,11.25
2017-11-07T11:45:51.739Z,11.25
2017-11-07T11:46:52.427Z,11.23
2017-11-07T11:47:52.452Z,11.25
2017-11-07T11:48:52.455Z,11.3
2017-11-07T11:49:52.475Z,11.36
2017-11-07T11:50:52.491Z,11.36
2017-11-07T11:51:52.535Z,11.35
2017-11-07T11:52:52.194Z,11.37
2017-11-07T11:53:51.872Z,11.36
2017-11-07T11:54:52.223Z,11.4
2017-11-07T11:55:51.906Z,11.37
2017-11-07T11:56:52.591Z,11.35
2017-11-07T11:57:52.275Z,11.43
2017-11-07T11:58:52.288Z,11.37
2017-11-07T11:59:52.303Z,11.36
2017-11-07T12:00:52.325Z,11.5
2017-11-07T12:01:52.005Z,11.57
2017-11-07T12:02:52.702Z,11.48
2017-11-07T12:03:52.376Z,11.45
2017-11-07T12:04:52.390Z,11.5
2017-11-07T12:05:52.070Z,11.48
2017-11-07T12:06:52.760Z,11.54
2017-11-07T12:07:52.451Z,11.55
2017-11-07T12:08:52.127Z,11.62
2017-11-07T12:09:52.469Z,11.55
2017-11-07T12:10:52.150Z,11.51
2017-11-07T12:11:52.556Z,11.59
2017-11-07T12:12:52.187Z,11.6
2017-11-07T12:14:05.291Z,11.52
2017-11-07T12:14:52.903Z,11.57
2017-11-07T12:15:52.244Z,11.5
2017-11-07T12:16:52.250Z,11.54
2017-11-07T12:17:52.608Z,11.52
2017-11-07T12:18:52.300Z,11.55
2017-11-07T12:19:52.977Z,11.55
2017-11-07T12:20:52.998Z,11.68
2017-11-07T12:21:53.015Z,11.52
2017-11-07T12:22:52.687Z,11.52
2017-11-07T12:23:53.047Z,11.52
2017-11-07T12:24:53.065Z,11.57
2017-11-07T12:25:52.406Z,11.52
2017-11-07T12:26:52.421Z,11.52
2017-11-07T12:27:53.108Z,11.52
2017-11-07T12:28:52.455Z,11.51
2017-11-07T12:29:53.142Z,11.47
2017-11-07T12:30:52.825Z,11.43
2017-11-07T12:31:53.190Z,11.48
2017-11-07T12:32:53.197Z,11.48
2017-11-07T12:33:52.878Z,11.48
2017-11-07T12:34:52.556Z,11.5
2017-11-07T12:35:52.909Z,11.47
2017-11-07T12:36:53.259Z,11.44
2017-11-07T12:37:52.945Z,11.5
2017-11-07T12:38:52.958Z,11.44
2017-11-07T12:39:52.984Z,11.5
2017-11-07T12:40:52.996Z,11.45
2017-11-07T12:41:53.013Z,11.45
2017-11-07T12:42:52.689Z,11.48
2017-11-07T12:43:53.388Z,11.52
2017-11-07T12:44:53.393Z,11.52
2017-11-07T12:45:53.413Z,11.63
2017-11-07T12:46:53.443Z,11.62
2017-11-07T12:47:53.445Z,11.66
2017-11-07T12:48:53.129Z,11.65
2017-11-07T12:49:53.139Z,11.68
2017-11-07T12:50:53.502Z,11.62
2017-11-07T12:51:53.518Z,11.68
2017-11-07T12:52:53.522Z,11.68
2017-11-07T12:53:53.212Z,11.68
2017-11-07T12:54:53.567Z,11.63
2017-11-07T12:55:52.907Z,11.65
2017-11-07T12:56:53.599Z,11.66
2017-11-07T12:57:52.951Z,11.63
2017-11-07T12:58:52.962Z,11.77
2017-11-07T12:59:53.320Z,11.72
2017-11-07T13:00:53.668Z,11.65
2017-11-07T13:01:53.680Z,11.73
2017-11-07T13:02:53.362Z,11.68
2017-11-07T13:03:53.718Z,11.63
2017-11-07T13:04:53.727Z,11.66
2017-11-07T13:05:53.414Z,11.66
2017-11-07T13:06:53.428Z,11.63
2017-11-07T13:07:53.112Z,11.8
2017-11-07T13:08:53.459Z,11.7
2017-11-07T13:09:53.480Z,11.7
2017-11-07T13:10:53.832Z,11.73
2017-11-07T13:11:53.519Z,11.69